sensor_id;sensor_type;location;lat;lon;timestamp;pressure;altitude;pressure_sealevel;temperature;humidity
73341;BME280;61578;52.002;5.468;2024-03-22T00:00:29;102029.19;;;13.99;75.03
73341;BME280;61578;52.002;5.468;2024-03-22T00:01:00;102036.81;;;14.06;75.64
73341;BME280;61578;52.002;5.468;2024-03-22T00:01:31;102034.25;;;14.04;75.69
73341;BME280;61578;52.002;5.468;2024-03-22T00:02:03;102021.06;;;14.01;75.81
73341;BME280;61578;52.002;5.468;2024-03-22T00:02:33;102035.59;;;14.11;75.65
73341;BME280;61578;52.002;5.468;2024-03-22T00:03:04;102026.91;;;14.08;75.72
73341;BME280;61578;52.002;5.468;2024-03-22T00:03:35;102031.97;;;14.12;75.50
73341;BME280;61578;52.002;5.468;2024-03-22T00:04:06;102025.19;;;14.07;75.75
73341;BME280;61578;52.002;5.468;2024-03-22T00:04:37;102031.03;;;14.13;75.62
73341;BME280;61578;52.002;5.468;2024-03-22T00:05:08;102031.91;;;14.14;75.45
73341;BME280;61578;52.002;5.468;2024-03-22T00:05:38;102030.09;;;14.14;75.83
73341;BME280;61578;52.002;5.468;2024-03-22T00:06:10;102029.22;;;14.14;75.92
73341;BME280;61578;52.002;5.468;2024-03-22T00:06:46;102031.28;;;14.09;75.62
73341;BME280;61578;52.002;5.468;2024-03-22T00:07:19;102029.22;;;14.14;75.45
73341;BME280;61578;52.002;5.468;2024-03-22T00:07:50;102030.16;;;14.13;75.47
73341;BME280;61578;52.002;5.468;2024-03-22T00:08:20;102024.16;;;14.09;75.67
73341;BME280;61578;52.002;5.468;2024-03-22T00:08:51;102039.06;;;14.13;75.73
73341;BME280;61578;52.002;5.468;2024-03-22T00:09:22;102036.38;;;14.13;75.94
73341;BME280;61578;52.002;5.468;2024-03-22T00:09:53;102028.38;;;14.13;75.66
73341;BME280;61578;52.002;5.468;2024-03-22T00:10:24;102032.06;;;14.11;75.93
73341;BME280;61578;52.002;5.468;2024-03-22T00:10:54;102022.06;;;14.14;76.20
73341;BME280;61578;52.002;5.468;2024-03-22T00:11:25;102043.53;;;14.13;75.86
73341;BME280;61578;52.002;5.468;2024-03-22T00:11:56;102035.44;;;14.14;75.51
73341;BME280;61578;52.002;5.468;2024-03-22T00:12:27;102031.97;;;14.12;76.03
73341;BME280;61578;52.002;5.468;2024-03-22T00:12:57;102032.47;;;14.19;76.17
73341;BME280;61578;52.002;5.468;2024-03-22T00:13:28;101990.16;;;13.97;76.06
73341;BME280;61578;52.002;5.468;2024-03-22T00:13:59;102031.44;;;14.21;76.11
73341;BME280;61578;52.002;5.468;2024-03-22T00:14:29;102031.25;;;14.24;75.93
73341;BME280;61578;52.002;5.468;2024-03-22T00:15:00;102020.66;;;14.23;75.88
73341;BME280;61578;52.002;5.468;2024-03-22T00:15:31;102024.19;;;14.23;76.08
73341;BME280;61578;52.002;5.468;2024-03-22T00:16:02;102025.13;;;14.22;76.02
73341;BME280;61578;52.002;5.468;2024-03-22T00:16:33;102027.22;;;14.17;76.20
73341;BME280;61578;52.002;5.468;2024-03-22T00:17:04;102006.69;;;14.18;76.04
73341;BME280;61578;52.002;5.468;2024-03-22T00:17:35;102017.13;;;14.22;76.20
73341;BME280;61578;52.002;5.468;2024-03-22T00:18:06;102017.13;;;14.22;75.88
73341;BME280;61578;52.002;5.468;2024-03-22T00:18:37;102019.78;;;14.22;75.90
73341;BME280;61578;52.002;5.468;2024-03-22T00:19:07;102014.44;;;14.22;76.40
73341;BME280;61578;52.002;5.468;2024-03-22T00:19:38;102022.38;;;14.24;76.21
73341;BME280;61578;52.002;5.468;2024-03-22T00:20:09;101976.53;;;14.02;76.10
73341;BME280;61578;52.002;5.468;2024-03-22T00:20:40;102015.41;;;14.21;76.21
73341;BME280;61578;52.002;5.468;2024-03-22T00:21:11;102012.63;;;14.23;76.35
73341;BME280;61578;52.002;5.468;2024-03-22T00:21:41;102010.06;;;14.21;76.50
73341;BME280;61578;52.002;5.468;2024-03-22T00:22:12;101981.69;;;14.05;76.00
73341;BME280;61578;52.002;5.468;2024-03-22T00:22:43;102008.25;;;14.22;75.99
73341;BME280;61578;52.002;5.468;2024-03-22T00:23:13;102004.72;;;14.21;76.06
73341;BME280;61578;52.002;5.468;2024-03-22T00:23:45;102002.69;;;14.25;76.14
73341;BME280;61578;52.002;5.468;2024-03-22T00:24:16;101996.88;;;14.18;76.27
73341;BME280;61578;52.002;5.468;2024-03-22T00:24:46;102000.16;;;14.23;75.93
73341;BME280;61578;52.002;5.468;2024-03-22T00:25:17;102001.00;;;14.24;76.25
73341;BME280;61578;52.002;5.468;2024-03-22T00:25:48;101997.34;;;14.25;76.00
73341;BME280;61578;52.002;5.468;2024-03-22T00:26:19;101988.88;;;14.18;76.62
73341;BME280;61578;52.002;5.468;2024-03-22T00:26:49;101993.09;;;14.22;76.20
73341;BME280;61578;52.002;5.468;2024-03-22T00:27:20;101989.63;;;14.20;76.24
73341;BME280;61578;52.002;5.468;2024-03-22T00:27:51;101994.50;;;14.28;76.24
73341;BME280;61578;52.002;5.468;2024-03-22T00:28:22;101984.00;;;14.25;76.58
73341;BME280;61578;52.002;5.468;2024-03-22T00:28:52;101971.72;;;14.22;76.52
73341;BME280;61578;52.002;5.468;2024-03-22T00:29:24;101977.63;;;14.27;76.33
73341;BME280;61578;52.002;5.468;2024-03-22T00:29:54;101986.41;;;14.29;76.47
73341;BME280;61578;52.002;5.468;2024-03-22T00:30:25;101992.50;;;14.31;76.59
73341;BME280;61578;52.002;5.468;2024-03-22T00:30:56;101975.72;;;14.29;76.16
73341;BME280;61578;52.002;5.468;2024-03-22T00:31:26;101981.84;;;14.31;76.12
73341;BME280;61578;52.002;5.468;2024-03-22T00:31:57;101974.09;;;14.27;76.28
73341;BME280;61578;52.002;5.468;2024-03-22T00:32:28;101938.84;;;14.06;76.36
73341;BME280;61578;52.002;5.468;2024-03-22T00:32:59;101979.50;;;14.25;76.31
73341;BME280;61578;52.002;5.468;2024-03-22T00:33:30;101967.50;;;14.18;76.52
73341;BME280;61578;52.002;5.468;2024-03-22T00:34:00;101978.00;;;14.21;76.63
73341;BME280;61578;52.002;5.468;2024-03-22T00:34:31;101936.66;;;13.98;76.59
73341;BME280;61578;52.002;5.468;2024-03-22T00:35:02;101983.91;;;14.26;76.86
73341;BME280;61578;52.002;5.468;2024-03-22T00:35:33;101975.25;;;14.23;76.51
73341;BME280;61578;52.002;5.468;2024-03-22T00:36:04;101970.75;;;14.23;76.59
73341;BME280;61578;52.002;5.468;2024-03-22T00:36:35;101967.41;;;14.20;76.59
73341;BME280;61578;52.002;5.468;2024-03-22T00:37:06;101969.81;;;14.24;76.44
73341;BME280;61578;52.002;5.468;2024-03-22T00:37:37;101977.81;;;14.24;76.66
73341;BME280;61578;52.002;5.468;2024-03-22T00:38:07;101972.47;;;14.24;76.73
73341;BME280;61578;52.002;5.468;2024-03-22T00:38:38;101966.28;;;14.24;76.61
73341;BME280;61578;52.002;5.468;2024-03-22T00:39:09;101965.22;;;14.26;76.76
73341;BME280;61578;52.002;5.468;2024-03-22T00:39:40;101964.47;;;14.24;76.80
73341;BME280;61578;52.002;5.468;2024-03-22T00:40:11;101961.03;;;14.22;76.80
73341;BME280;61578;52.002;5.468;2024-03-22T00:40:42;101943.34;;;14.06;76.85
73341;BME280;61578;52.002;5.468;2024-03-22T00:41:14;101959.47;;;14.18;76.82
73341;BME280;61578;52.002;5.468;2024-03-22T00:41:44;101965.50;;;14.22;76.89
73341;BME280;61578;52.002;5.468;2024-03-22T00:42:15;101959.22;;;14.23;76.61
73341;BME280;61578;52.002;5.468;2024-03-22T00:42:46;101964.75;;;14.20;76.99
73341;BME280;61578;52.002;5.468;2024-03-22T00:43:17;101955.78;;;14.21;76.92
73341;BME280;61578;52.002;5.468;2024-03-22T00:43:48;101959.47;;;14.18;77.05
73341;BME280;61578;52.002;5.468;2024-03-22T00:44:19;101933.91;;;14.00;76.85
73341;BME280;61578;52.002;5.468;2024-03-22T00:44:49;101957.59;;;14.20;76.79
73341;BME280;61578;52.002;5.468;2024-03-22T00:45:20;101957.75;;;14.17;76.97
73341;BME280;61578;52.002;5.468;2024-03-22T00:45:51;101963.00;;;14.19;77.01
73341;BME280;61578;52.002;5.468;2024-03-22T00:46:21;101912.16;;;13.92;77.08
73341;BME280;61578;52.002;5.468;2024-03-22T00:46:52;101957.84;;;14.16;77.12
73341;BME280;61578;52.002;5.468;2024-03-22T00:47:23;101959.56;;;14.17;76.87
73341;BME280;61578;52.002;5.468;2024-03-22T00:47:54;101956.25;;;14.13;77.21
73341;BME280;61578;52.002;5.468;2024-03-22T00:48:25;101930.38;;;13.99;77.09
73341;BME280;61578;52.002;5.468;2024-03-22T00:48:55;101956.34;;;14.12;77.22
73341;BME280;61578;52.002;5.468;2024-03-22T00:49:26;101953.59;;;14.13;77.29
73341;BME280;61578;52.002;5.468;2024-03-22T00:49:57;101957.38;;;14.09;77.33
73341;BME280;61578;52.002;5.468;2024-03-22T00:50:28;101955.31;;;14.14;77.35
73341;BME280;61578;52.002;5.468;2024-03-22T00:50:59;101955.31;;;14.14;77.30
73341;BME280;61578;52.002;5.468;2024-03-22T00:51:30;101955.38;;;14.13;77.35
73341;BME280;61578;52.002;5.468;2024-03-22T00:52:01;101952.81;;;14.11;77.30
73341;BME280;61578;52.002;5.468;2024-03-22T00:52:31;101950.13;;;14.11;77.22
73341;BME280;61578;52.002;5.468;2024-03-22T00:53:02;101952.81;;;14.11;77.33
73341;BME280;61578;52.002;5.468;2024-03-22T00:53:34;101959.97;;;14.11;77.04
73341;BME280;61578;52.002;5.468;2024-03-22T00:54:04;101952.91;;;14.10;77.15
73341;BME280;61578;52.002;5.468;2024-03-22T00:54:35;101951.34;;;14.06;77.52
73341;BME280;61578;52.002;5.468;2024-03-22T00:55:09;101948.81;;;14.04;77.47
73341;BME280;61578;52.002;5.468;2024-03-22T00:55:40;101959.38;;;14.06;77.52
73341;BME280;61578;52.002;5.468;2024-03-22T00:56:10;101952.41;;;14.03;77.68
73341;BME280;61578;52.002;5.468;2024-03-22T00:56:41;101955.28;;;14.00;77.75
73341;BME280;61578;52.002;5.468;2024-03-22T00:57:12;101937.44;;;14.00;77.94
73341;BME280;61578;52.002;5.468;2024-03-22T00:57:43;101946.31;;;14.01;77.57
73341;BME280;61578;52.002;5.468;2024-03-22T00:58:13;101941.84;;;14.02;77.89
73341;BME280;61578;52.002;5.468;2024-03-22T00:58:44;101932.19;;;13.99;77.79
73341;BME280;61578;52.002;5.468;2024-03-22T00:59:15;101943.47;;;14.04;77.91
73341;BME280;61578;52.002;5.468;2024-03-22T00:59:47;101942.69;;;14.02;78.13
73341;BME280;61578;52.002;5.468;2024-03-22T01:00:17;101943.47;;;14.04;78.10
73341;BME280;61578;52.002;5.468;2024-03-22T01:00:48;101941.53;;;14.06;77.81
73341;BME280;61578;52.002;5.468;2024-03-22T01:01:19;101937.13;;;14.05;77.93
73341;BME280;61578;52.002;5.468;2024-03-22T01:01:49;101934.47;;;14.05;77.84
73341;BME280;61578;52.002;5.468;2024-03-22T01:02:20;101936.19;;;14.06;77.76
73341;BME280;61578;52.002;5.468;2024-03-22T01:02:52;101934.47;;;14.05;77.98
73341;BME280;61578;52.002;5.468;2024-03-22T01:03:23;101936.19;;;14.06;77.95
73341;BME280;61578;52.002;5.468;2024-03-22T01:03:54;101932.66;;;14.06;77.93
73341;BME280;61578;52.002;5.468;2024-03-22T01:04:25;101934.69;;;14.02;77.74
73341;BME280;61578;52.002;5.468;2024-03-22T01:04:56;101934.47;;;14.05;77.60
73341;BME280;61578;52.002;5.468;2024-03-22T01:05:26;101892.97;;;13.85;77.78
73341;BME280;61578;52.002;5.468;2024-03-22T01:05:57;101922.28;;;14.01;77.76
73341;BME280;61578;52.002;5.468;2024-03-22T01:06:28;101923.03;;;14.03;77.97
73341;BME280;61578;52.002;5.468;2024-03-22T01:06:58;101915.91;;;14.04;77.91
73341;BME280;61578;52.002;5.468;2024-03-22T01:07:29;101926.47;;;14.05;78.01
73341;BME280;61578;52.002;5.468;2024-03-22T01:08:00;101881.81;;;13.79;77.54
73341;BME280;61578;52.002;5.468;2024-03-22T01:08:31;101925.72;;;14.03;77.89
73341;BME280;61578;52.002;5.468;2024-03-22T01:09:01;101923.13;;;14.02;77.89
73341;BME280;61578;52.002;5.468;2024-03-22T01:09:33;101912.81;;;13.95;78.08
73341;BME280;61578;52.002;5.468;2024-03-22T01:10:04;101919.88;;;13.96;77.84
73341;BME280;61578;52.002;5.468;2024-03-22T01:10:35;101923.22;;;14.00;77.85
73341;BME280;61578;52.002;5.468;2024-03-22T01:11:06;101908.91;;;13.87;78.20
73341;BME280;61578;52.002;5.468;2024-03-22T01:11:37;101912.81;;;13.95;78.07
73341;BME280;61578;52.002;5.468;2024-03-22T01:12:08;101926.84;;;13.99;77.93
73341;BME280;61578;52.002;5.468;2024-03-22T01:12:39;101919.88;;;13.96;78.00
73341;BME280;61578;52.002;5.468;2024-03-22T01:13:10;101934.16;;;13.95;78.03
73341;BME280;61578;52.002;5.468;2024-03-22T01:13:40;101926.28;;;13.94;77.95
73341;BME280;61578;52.002;5.468;2024-03-22T01:14:11;101915.00;;;13.89;78.26
73341;BME280;61578;52.002;5.468;2024-03-22T01:14:42;101925.41;;;13.93;78.25
73341;BME280;61578;52.002;5.468;2024-03-22T01:15:13;101929.91;;;13.93;78.28
73341;BME280;61578;52.002;5.468;2024-03-22T01:15:44;101874.63;;;13.65;78.31
73341;BME280;61578;52.002;5.468;2024-03-22T01:16:16;101920.94;;;13.94;78.29
73341;BME280;61578;52.002;5.468;2024-03-22T01:16:47;101918.38;;;13.92;78.51
73341;BME280;61578;52.002;5.468;2024-03-22T01:17:17;101917.75;;;13.87;78.48
73341;BME280;61578;52.002;5.468;2024-03-22T01:17:48;101922.63;;;13.95;78.40
73341;BME280;61578;52.002;5.468;2024-03-22T01:18:19;101921.78;;;13.94;78.35
73341;BME280;61578;52.002;5.468;2024-03-22T01:18:50;101873.59;;;13.68;78.53
73341;BME280;61578;52.002;5.468;2024-03-22T01:19:21;101926.28;;;13.94;78.30
73341;BME280;61578;52.002;5.468;2024-03-22T01:19:53;101930.84;;;13.92;78.22
73341;BME280;61578;52.002;5.468;2024-03-22T01:20:24;101925.31;;;13.95;78.39
73341;BME280;61578;52.002;5.468;2024-03-22T01:20:55;101926.16;;;13.95;78.59
73341;BME280;61578;52.002;5.468;2024-03-22T01:21:26;101926.94;;;13.97;78.71
73341;BME280;61578;52.002;5.468;2024-03-22T01:21:57;101911.22;;;13.93;78.48
73341;BME280;61578;52.002;5.468;2024-03-22T01:22:28;101916.94;;;14.01;78.17
73341;BME280;61578;52.002;5.468;2024-03-22T01:22:59;101925.91;;;14.00;78.42
73341;BME280;61578;52.002;5.468;2024-03-22T01:23:31;101916.34;;;13.96;78.17
73341;BME280;61578;52.002;5.468;2024-03-22T01:24:02;101917.13;;;13.98;78.55
73341;BME280;61578;52.002;5.468;2024-03-22T01:24:33;101914.53;;;13.96;78.17
73341;BME280;61578;52.002;5.468;2024-03-22T01:25:04;101903.19;;;13.93;78.17
73341;BME280;61578;52.002;5.468;2024-03-22T01:25:35;101916.94;;;14.01;78.25
73341;BME280;61578;52.002;5.468;2024-03-22T01:26:06;101902.13;;;13.95;78.30
73341;BME280;61578;52.002;5.468;2024-03-22T01:26:37;101892.69;;;13.90;78.39
73341;BME280;61578;52.002;5.468;2024-03-22T01:27:08;101915.03;;;14.03;78.31
73341;BME280;61578;52.002;5.468;2024-03-22T01:27:39;101911.50;;;14.03;78.23
73341;BME280;61578;52.002;5.468;2024-03-22T01:28:10;101912.53;;;14.00;78.08
73341;BME280;61578;52.002;5.468;2024-03-22T01:28:41;101910.06;;;13.97;78.21
73341;BME280;61578;52.002;5.468;2024-03-22T01:29:13;101911.78;;;13.98;78.20
73341;BME280;61578;52.002;5.468;2024-03-22T01:29:44;101906.34;;;13.99;78.62
73341;BME280;61578;52.002;5.468;2024-03-22T01:30:16;101914.44;;;13.98;78.47
73341;BME280;61578;52.002;5.468;2024-03-22T01:30:47;101911.78;;;13.98;78.61
73341;BME280;61578;52.002;5.468;2024-03-22T01:31:18;101919.78;;;13.98;78.43
73341;BME280;61578;52.002;5.468;2024-03-22T01:31:48;101899.59;;;13.94;78.27
73341;BME280;61578;52.002;5.468;2024-03-22T01:32:19;101907.28;;;13.98;78.56
73341;BME280;61578;52.002;5.468;2024-03-22T01:32:50;101907.19;;;14.00;78.55
73341;BME280;61578;52.002;5.468;2024-03-22T01:33:21;101909.88;;;14.00;78.63
73341;BME280;61578;52.002;5.468;2024-03-22T01:33:52;101901.28;;;13.95;78.35
73341;BME280;61578;52.002;5.468;2024-03-22T01:34:22;101878.38;;;13.77;78.52
73341;BME280;61578;52.002;5.468;2024-03-22T01:34:53;101875.63;;;13.78;78.19
73341;BME280;61578;52.002;5.468;2024-03-22T01:35:24;101900.41;;;13.94;78.26
73341;BME280;61578;52.002;5.468;2024-03-22T01:35:55;101904.53;;;14.00;78.28
73341;BME280;61578;52.002;5.468;2024-03-22T01:36:25;101908.16;;;13.99;78.21
73341;BME280;61578;52.002;5.468;2024-03-22T01:36:56;101906.63;;;13.95;78.35
73341;BME280;61578;52.002;5.468;2024-03-22T01:37:27;101911.00;;;13.96;78.56
73341;BME280;61578;52.002;5.468;2024-03-22T01:37:57;101889.56;;;13.83;78.77
73341;BME280;61578;52.002;5.468;2024-03-22T01:38:28;101908.41;;;13.94;78.71
73341;BME280;61578;52.002;5.468;2024-03-22T01:38:59;101914.75;;;13.93;78.76
73341;BME280;61578;52.002;5.468;2024-03-22T01:39:30;101909.28;;;13.95;78.77
73341;BME280;61578;52.002;5.468;2024-03-22T01:40:01;101912.25;;;13.90;78.80
73341;BME280;61578;52.002;5.468;2024-03-22T01:40:32;101911.22;;;13.93;78.95
73341;BME280;61578;52.002;5.468;2024-03-22T01:41:03;101897.00;;;13.92;79.11
73341;BME280;61578;52.002;5.468;2024-03-22T01:41:34;101902.34;;;13.92;78.89
73341;BME280;61578;52.002;5.468;2024-03-22T01:42:05;101908.53;;;13.93;78.93
73341;BME280;61578;52.002;5.468;2024-03-22T01:42:36;101911.09;;;13.94;78.81
73341;BME280;61578;52.002;5.468;2024-03-22T01:43:07;101899.59;;;13.94;78.54
73341;BME280;61578;52.002;5.468;2024-03-22T01:43:38;101904.91;;;13.94;78.65
73341;BME280;61578;52.002;5.468;2024-03-22T01:44:09;101903.19;;;13.93;78.64
73341;BME280;61578;52.002;5.468;2024-03-22T01:44:40;101904.16;;;13.92;78.82
73341;BME280;61578;52.002;5.468;2024-03-22T01:45:14;101900.53;;;13.93;78.89
73341;BME280;61578;52.002;5.468;2024-03-22T01:45:45;101907.69;;;13.92;79.04
73341;BME280;61578;52.002;5.468;2024-03-22T01:46:16;101903.19;;;13.93;79.00
73341;BME280;61578;52.002;5.468;2024-03-22T01:46:47;101903.19;;;13.93;78.88
73341;BME280;61578;52.002;5.468;2024-03-22T01:47:18;101900.53;;;13.93;78.89
73341;BME280;61578;52.002;5.468;2024-03-22T01:47:50;101898.31;;;13.85;78.54
73341;BME280;61578;52.002;5.468;2024-03-22T01:48:24;101901.66;;;13.89;78.57
73341;BME280;61578;52.002;5.468;2024-03-22T01:48:55;101895.63;;;13.85;78.51
73341;BME280;61578;52.002;5.468;2024-03-22T01:49:26;101897.56;;;13.83;78.86
73341;BME280;61578;52.002;5.468;2024-03-22T01:49:57;101859.88;;;13.59;78.71
73341;BME280;61578;52.002;5.468;2024-03-22T01:50:28;101902.03;;;13.83;79.00
73341;BME280;61578;52.002;5.468;2024-03-22T01:51:00;101901.19;;;13.82;79.11
73341;BME280;61578;52.002;5.468;2024-03-22T01:51:32;101900.97;;;13.85;78.77
73341;BME280;61578;52.002;5.468;2024-03-22T01:52:03;101900.31;;;13.82;78.83
73341;BME280;61578;52.002;5.468;2024-03-22T01:52:34;101904.41;;;13.87;78.94
73341;BME280;61578;52.002;5.468;2024-03-22T01:53:05;101906.13;;;13.88;78.68
73341;BME280;61578;52.002;5.468;2024-03-22T01:53:37;101903.56;;;13.87;78.99
73341;BME280;61578;52.002;5.468;2024-03-22T01:54:09;101900.78;;;13.88;78.77
73341;BME280;61578;52.002;5.468;2024-03-22T01:54:40;101908.91;;;13.87;78.67
73341;BME280;61578;52.002;5.468;2024-03-22T01:55:11;101907.19;;;13.86;78.93
73341;BME280;61578;52.002;5.468;2024-03-22T01:55:42;101903.66;;;13.85;79.17
73341;BME280;61578;52.002;5.468;2024-03-22T01:56:13;101900.97;;;13.85;79.35
73341;BME280;61578;52.002;5.468;2024-03-22T01:56:45;101898.50;;;13.82;79.08
73341;BME280;61578;52.002;5.468;2024-03-22T01:57:16;101901.66;;;13.89;78.98
73341;BME280;61578;52.002;5.468;2024-03-22T01:57:49;101897.56;;;13.83;79.22
73341;BME280;61578;52.002;5.468;2024-03-22T01:58:21;101898.22;;;13.87;79.17
73341;BME280;61578;52.002;5.468;2024-03-22T01:58:53;101893.81;;;13.86;78.85
73341;BME280;61578;52.002;5.468;2024-03-22T01:59:25;101903.38;;;13.90;79.24
73341;BME280;61578;52.002;5.468;2024-03-22T01:59:59;101899.75;;;13.91;79.33
73341;BME280;61578;52.002;5.468;2024-03-22T02:00:30;101904.31;;;13.89;79.32
73341;BME280;61578;52.002;5.468;2024-03-22T02:01:01;101901.41;;;13.93;78.97
73341;BME280;61578;52.002;5.468;2024-03-22T02:01:33;101901.41;;;13.93;78.96
73341;BME280;61578;52.002;5.468;2024-03-22T02:02:06;101895.38;;;13.90;78.95
73341;BME280;61578;52.002;5.468;2024-03-22T02:02:37;101886.69;;;13.86;79.17
73341;BME280;61578;52.002;5.468;2024-03-22T02:03:08;101892.69;;;13.90;78.99
73341;BME280;61578;52.002;5.468;2024-03-22T02:03:39;101895.19;;;13.93;78.90
73341;BME280;61578;52.002;5.468;2024-03-22T02:04:09;101892.41;;;13.94;79.21
73341;BME280;61578;52.002;5.468;2024-03-22T02:04:40;101904.06;;;13.93;78.89
73341;BME280;61578;52.002;5.468;2024-03-22T02:05:15;101889.56;;;13.97;79.02
73341;BME280;61578;52.002;5.468;2024-03-22T02:05:49;101894.03;;;13.97;78.85
73341;BME280;61578;52.002;5.468;2024-03-22T02:06:20;101882.13;;;13.88;78.91
73341;BME280;61578;52.002;5.468;2024-03-22T02:06:51;101895.06;;;13.94;79.02
73341;BME280;61578;52.002;5.468;2024-03-22T02:07:21;101896.91;;;13.94;78.88
73341;BME280;61578;52.002;5.468;2024-03-22T02:07:52;101900.41;;;13.94;79.21
73341;BME280;61578;52.002;5.468;2024-03-22T02:08:24;101888.91;;;13.94;78.67
73341;BME280;61578;52.002;5.468;2024-03-22T02:08:55;101888.13;;;13.92;78.98
73341;BME280;61578;52.002;5.468;2024-03-22T02:09:27;101892.53;;;13.93;79.03
73341;BME280;61578;52.002;5.468;2024-03-22T02:09:58;101891.84;;;13.89;78.99
73341;BME280;61578;52.002;5.468;2024-03-22T02:10:29;101894.25;;;13.94;78.86
73341;BME280;61578;52.002;5.468;2024-03-22T02:11:01;101885.25;;;13.95;79.02
73341;BME280;61578;52.002;5.468;2024-03-22T02:11:32;101880.91;;;13.94;78.65
73341;BME280;61578;52.002;5.468;2024-03-22T02:12:03;101878.41;;;13.91;78.92
73341;BME280;61578;52.002;5.468;2024-03-22T02:12:34;101894.97;;;13.96;78.68
73341;BME280;61578;52.002;5.468;2024-03-22T02:13:04;101883.66;;;13.92;78.99
73341;BME280;61578;52.002;5.468;2024-03-22T02:13:35;101863.72;;;13.84;79.30
73341;BME280;61578;52.002;5.468;2024-03-22T02:14:06;101875.91;;;13.88;79.17
73341;BME280;61578;52.002;5.468;2024-03-22T02:14:37;101879.06;;;13.94;78.91
73341;BME280;61578;52.002;5.468;2024-03-22T02:15:08;101867.91;;;13.88;79.05
73341;BME280;61578;52.002;5.468;2024-03-22T02:15:39;101888.13;;;13.92;78.87
73341;BME280;61578;52.002;5.468;2024-03-22T02:16:10;101882.78;;;13.92;78.99
73341;BME280;61578;52.002;5.468;2024-03-22T02:16:41;101880.13;;;13.92;79.14
73341;BME280;61578;52.002;5.468;2024-03-22T02:17:12;101851.88;;;13.74;79.01
73341;BME280;61578;52.002;5.468;2024-03-22T02:17:43;101877.63;;;13.89;79.10
73341;BME280;61578;52.002;5.468;2024-03-22T02:18:13;101883.66;;;13.92;79.19
73341;BME280;61578;52.002;5.468;2024-03-22T02:18:44;101889.72;;;13.94;79.12
73341;BME280;61578;52.002;5.468;2024-03-22T02:19:15;101878.31;;;13.92;79.02
73341;BME280;61578;52.002;5.468;2024-03-22T02:19:46;101880.13;;;13.92;79.08
73341;BME280;61578;52.002;5.468;2024-03-22T02:20:16;101882.50;;;13.96;78.92
73341;BME280;61578;52.002;5.468;2024-03-22T02:20:47;101884.50;;;13.93;79.28
73341;BME280;61578;52.002;5.468;2024-03-22T02:21:18;101875.44;;;13.95;79.13
73341;BME280;61578;52.002;5.468;2024-03-22T02:21:49;101879.91;;;13.95;79.16
73341;BME280;61578;52.002;5.468;2024-03-22T02:22:20;101885.06;;;13.98;78.78
73341;BME280;61578;52.002;5.468;2024-03-22T02:22:50;101879.81;;;13.96;79.23
73341;BME280;61578;52.002;5.468;2024-03-22T02:24:07;101879.06;;;13.94;79.23
73341;BME280;61578;52.002;5.468;2024-03-22T02:24:38;101853.22;;;13.81;79.03
73341;BME280;61578;52.002;5.468;2024-03-22T02:25:09;101876.28;;;13.96;79.27
73341;BME280;61578;52.002;5.468;2024-03-22T02:25:39;101879.72;;;13.98;78.99
73341;BME280;61578;52.002;5.468;2024-03-22T02:26:10;101856.53;;;13.84;78.98
73341;BME280;61578;52.002;5.468;2024-03-22T02:26:41;101880.59;;;13.98;79.06
73341;BME280;61578;52.002;5.468;2024-03-22T02:27:12;101871.03;;;13.94;79.12
73341;BME280;61578;52.002;5.468;2024-03-22T02:27:43;101836.63;;;13.76;78.97
73341;BME280;61578;52.002;5.468;2024-03-22T02:28:13;101870.78;;;13.99;78.79
73341;BME280;61578;52.002;5.468;2024-03-22T02:28:44;101871.72;;;13.98;78.89
73341;BME280;61578;52.002;5.468;2024-03-22T02:29:15;101858.47;;;13.96;79.05
73341;BME280;61578;52.002;5.468;2024-03-22T02:29:45;101832.34;;;13.73;79.13
73341;BME280;61578;52.002;5.468;2024-03-22T02:30:17;101863.16;;;13.93;79.19
73341;BME280;61578;52.002;5.468;2024-03-22T02:30:48;101874.38;;;13.98;79.00
73341;BME280;61578;52.002;5.468;2024-03-22T02:31:19;101859.72;;;13.91;79.04
73341;BME280;61578;52.002;5.468;2024-03-22T02:31:50;101846.72;;;13.85;79.13
73341;BME280;61578;52.002;5.468;2024-03-22T02:32:21;101860.56;;;13.91;78.90
73341;BME280;61578;52.002;5.468;2024-03-22T02:32:52;101871.81;;;13.96;79.35
73341;BME280;61578;52.002;5.468;2024-03-22T02:33:23;101868.38;;;13.94;79.00
73341;BME280;61578;52.002;5.468;2024-03-22T02:33:54;101863.88;;;13.95;79.23
73341;BME280;61578;52.002;5.468;2024-03-22T02:34:24;101862.19;;;13.94;79.26
73341;BME280;61578;52.002;5.468;2024-03-22T02:34:55;101824.22;;;13.75;78.97
73341;BME280;61578;52.002;5.468;2024-03-22T02:35:26;101862.94;;;13.96;79.05
73341;BME280;61578;52.002;5.468;2024-03-22T02:35:57;101858.56;;;13.95;79.25
73341;BME280;61578;52.002;5.468;2024-03-22T02:36:28;101864.88;;;13.94;78.89
73341;BME280;61578;52.002;5.468;2024-03-22T02:36:58;101856.00;;;13.93;79.08
73341;BME280;61578;52.002;5.468;2024-03-22T02:37:29;101856.88;;;13.94;78.87
73341;BME280;61578;52.002;5.468;2024-03-22T02:38:00;101856.09;;;13.92;78.87
73341;BME280;61578;52.002;5.468;2024-03-22T02:38:30;101860.47;;;13.93;79.07
73341;BME280;61578;52.002;5.468;2024-03-22T02:39:01;101860.38;;;13.94;79.16
73341;BME280;61578;52.002;5.468;2024-03-22T02:39:32;101851.03;;;13.87;78.94
73341;BME280;61578;52.002;5.468;2024-03-22T02:40:03;101850.06;;;13.88;78.83
73341;BME280;61578;52.002;5.468;2024-03-22T02:40:34;101854.19;;;13.94;78.96
73341;BME280;61578;52.002;5.468;2024-03-22T02:41:05;101849.97;;;13.90;78.92
73341;BME280;61578;52.002;5.468;2024-03-22T02:41:36;101819.75;;;13.75;79.12
73341;BME280;61578;52.002;5.468;2024-03-22T02:42:06;101849.03;;;13.91;78.89
73341;BME280;61578;52.002;5.468;2024-03-22T02:42:37;101860.28;;;13.96;78.96
73341;BME280;61578;52.002;5.468;2024-03-22T02:43:08;101862.19;;;13.94;78.40